Newport Airport, OR

11:29 AM PDT on May 26, 2018 (GMT -0700)
Newport Municipal

Weather History for KONP - January, 2013

Change the Weather History Date:

Tuesday, January 22, 2013

  Actual Average Record
Temperature  
Mean Temperature 45 °F -  
Max Temperature 55 °F 48 °F 60 °F (2005)
Min Temperature 35 °F 40 °F 30 °F (2008)
Degree Days  
Heating Degree Days 20    
Moisture  
Dew Point 32 °F    
Average Humidity 66    
Maximum Humidity 81    
Minimum Humidity 41    
Precipitation  
Precipitation 0.00 in - - ()
Sea Level Pressure  
Sea Level Pressure 30.00 in    
Wind  
Wind Speed 11 mph (East)    
Max Wind Speed 16 mph    
Max Gust Speed 20 mph    
Visibility 10 miles    
Events      
Averages and records for this station are not official NWS values.
T = Trace of Precipitation, MM = Missing Value Source: NWS Daily Summary

Daily Weather History Graph

Daily Weather History Graph

Search for Another Location

Airport or City:

Astronomy

Jan. 22, 2013 Rise Set
Actual Time 7:44 AM PST 5:11 PM PST
Civil Twilight 7:12 AM PST 5:43 PM PST
Nautical Twilight 6:37 AM PST 6:19 PM PST
Astronomical Twilight 6:02 AM PST 6:53 PM PST
Moon 1:37 PM PST (1/22) 4:12 AM PST (1/22)
Length of Visible Light 10h 31m
Length of Day
9h 27m
Waxing Gibbous, 83% of the Moon is Illuminated
Jan 22
Waxing Gibbous
Jan 26
Full
Feb 3
Last Quarter
Feb 9
New
Feb 17
First Quarter

Hourly Weather History & Observations

Time (PST) Temp. Windchill Dew Point Humidity Pressure Visibility Wind Dir Wind Speed Gust Speed Precip Events Conditions
12:15 AM 37.4 °F 32.1 °F 30.2 °F 75% 30.11 in 10.0 mi East 6.9 mph - N/A   Clear
12:35 AM 37.4 °F 29.8 °F 30.2 °F 75% 30.10 in 10.0 mi East 11.5 mph - N/A   Clear
12:55 AM 37.4 °F 29.3 °F 30.2 °F 75% 30.10 in 10.0 mi East 12.7 mph - N/A   Clear
1:15 AM 35.6 °F 27.1 °F 30.2 °F 81% 30.09 in 10.0 mi East 12.7 mph - N/A   Clear
1:35 AM 35.6 °F 28.0 °F 28.4 °F 75% 30.09 in 10.0 mi East 10.4 mph - N/A   Clear
1:55 AM 35.6 °F 26.6 °F 28.4 °F 75% 30.08 in 10.0 mi East 13.8 mph - N/A   Clear
2:15 AM 35.6 °F 26.6 °F 28.4 °F 75% 30.08 in 10.0 mi East 13.8 mph - N/A   Clear
2:35 AM 35.6 °F 26.2 °F 28.4 °F 75% 30.07 in 10.0 mi East 15.0 mph - N/A   Clear
2:55 AM 35.6 °F 26.6 °F 28.4 °F 75% 30.07 in 10.0 mi East 13.8 mph - N/A   Clear
3:15 AM 35.6 °F 26.6 °F 28.4 °F 75% 30.06 in 10.0 mi East 13.8 mph - N/A   Clear
3:35 AM 35.6 °F 26.6 °F 28.4 °F 75% 30.06 in 10.0 mi East 13.8 mph - N/A   Clear
3:55 AM 37.4 °F 29.8 °F 28.4 °F 70% 30.07 in 10.0 mi East 11.5 mph - N/A   Clear
4:15 AM 37.4 °F 29.8 °F 28.4 °F 70% 30.06 in 10.0 mi East 11.5 mph - N/A   Clear
4:35 AM 35.6 °F 26.6 °F 30.2 °F 81% 30.06 in 10.0 mi East 13.8 mph - N/A   Clear
4:55 AM 35.6 °F 26.2 °F 30.2 °F 81% 30.06 in 10.0 mi East 15.0 mph - N/A   Clear
5:15 AM 35.6 °F 26.6 °F 30.2 °F 81% 30.05 in 10.0 mi East 13.8 mph - N/A   Clear
5:35 AM 35.6 °F 26.2 °F 30.2 °F 81% 30.04 in 10.0 mi East 15.0 mph - N/A   Clear
5:55 AM 35.6 °F 26.2 °F 30.2 °F 81% 30.03 in 10.0 mi East 15.0 mph - N/A   Clear
6:15 AM 35.6 °F 25.9 °F 28.4 °F 75% 30.03 in 10.0 mi East 16.1 mph - N/A   Clear
6:35 AM 35.6 °F 25.9 °F 28.4 °F 75% 30.02 in 10.0 mi East 16.1 mph - N/A   Clear
6:55 AM 35.6 °F 26.6 °F 28.4 °F 75% 30.03 in 10.0 mi East 13.8 mph 19.6 mph N/A   Clear
7:15 AM 35.6 °F 26.6 °F 28.4 °F 75% 30.03 in 10.0 mi East 13.8 mph - N/A   Clear
7:35 AM 35.6 °F 26.6 °F 28.4 °F 75% 30.03 in 10.0 mi East 13.8 mph - N/A   Clear
7:55 AM 35.6 °F 26.6 °F 28.4 °F 75% 30.02 in 10.0 mi East 13.8 mph - N/A   Clear
8:15 AM 35.6 °F 26.6 °F 28.4 °F 75% 30.03 in 10.0 mi East 13.8 mph - N/A   Clear
8:35 AM 37.4 °F 29.3 °F 28.4 °F 70% 30.03 in 10.0 mi East 12.7 mph - N/A   Clear
8:55 AM 37.4 °F 29.3 °F 28.4 °F 70% 30.03 in 10.0 mi East 12.7 mph 18.4 mph N/A   Clear
9:15 AM 37.4 °F 28.9 °F 28.4 °F 70% 30.03 in 10.0 mi East 13.8 mph - N/A   Clear
9:35 AM 41.0 °F 33.9 °F 30.2 °F 65% 30.03 in 10.0 mi East 12.7 mph - N/A   Clear
9:55 AM 41.0 °F 33.5 °F 30.2 °F 65% 30.02 in 10.0 mi East 13.8 mph - N/A   Clear
10:15 AM 44.6 °F 38.8 °F 30.2 °F 57% 30.03 in 10.0 mi East 11.5 mph - N/A   Clear
10:35 AM 44.6 °F 38.4 °F 30.2 °F 57% 30.03 in 10.0 mi East 12.7 mph - N/A   Clear
10:55 AM 44.6 °F 38.4 °F 32.0 °F 61% 30.03 in 10.0 mi East 12.7 mph - N/A   Clear
11:15 AM 46.4 °F 40.4 °F 30.2 °F 53% 30.02 in 10.0 mi East 13.8 mph - N/A   Clear
11:35 AM 46.4 °F 40.4 °F 32.0 °F 57% 30.01 in 10.0 mi East 13.8 mph - N/A   Clear
11:55 AM 46.4 °F 40.1 °F 32.0 °F 57% 30.00 in 10.0 mi East 15.0 mph - N/A   Clear
12:15 PM 46.4 °F 40.7 °F 32.0 °F 57% 30.00 in 10.0 mi East 12.7 mph - N/A   Clear
12:35 PM 50.0 °F - 32.0 °F 50% 29.99 in 10.0 mi East 13.8 mph - N/A   Clear
12:55 PM 50.0 °F - 32.0 °F 50% 29.99 in 10.0 mi East 10.4 mph - N/A   Clear
1:15 PM 53.6 °F - 32.0 °F 44% 29.99 in 10.0 mi East 8.1 mph - N/A   Clear
1:35 PM 55.4 °F - 32.0 °F 41% 29.99 in 10.0 mi East 4.6 mph - N/A   Clear
1:55 PM 55.4 °F - 33.8 °F 44% 29.98 in 10.0 mi ENE 8.1 mph - N/A   Clear
2:15 PM 53.6 °F - 33.8 °F 47% 29.98 in 10.0 mi East 6.9 mph - N/A   Clear
2:35 PM 55.4 °F - 33.8 °F 44% 29.98 in 10.0 mi ESE 4.6 mph - N/A   Clear
2:55 PM 53.6 °F - 33.8 °F 47% 29.97 in 10.0 mi East 6.9 mph - N/A   Clear
3:15 PM 53.6 °F - 33.8 °F 47% 29.97 in 10.0 mi East 9.2 mph - N/A   Clear
3:35 PM 51.8 °F - 33.8 °F 50% 29.96 in 10.0 mi East 8.1 mph - N/A   Clear
3:55 PM 51.8 °F - 33.8 °F 50% 29.96 in 10.0 mi East 9.2 mph - N/A   Clear
4:15 PM 51.8 °F - 33.8 °F 50% 29.95 in 10.0 mi East 6.9 mph - N/A   Clear
4:35 PM 50.0 °F - 33.8 °F 54% 29.95 in 10.0 mi East 6.9 mph - N/A   Clear
4:55 PM 50.0 °F - 33.8 °F 54% 29.95 in 10.0 mi East 3.5 mph - N/A   Clear
5:15 PM 50.0 °F - 33.8 °F 54% 29.96 in 10.0 mi Calm Calm - N/A   Clear
5:35 PM 51.8 °F - 37.4 °F 58% 29.96 in 10.0 mi SSW 10.4 mph - N/A   Clear
5:55 PM 51.8 °F - 42.8 °F 71% 29.96 in 10.0 mi South 10.4 mph - N/A   Clear
6:15 PM 51.8 °F - 42.8 °F 71% 29.95 in 10.0 mi South 8.1 mph - N/A   Clear
6:35 PM 50.0 °F - 42.8 °F 76% 29.95 in 10.0 mi SSE 5.8 mph - N/A   Clear
6:55 PM 50.0 °F - 42.8 °F 76% 29.95 in 10.0 mi Calm Calm - N/A   Clear
7:15 PM 46.4 °F 43.5 °F 35.6 °F 66% 29.96 in 10.0 mi East 5.8 mph - N/A   Scattered Clouds
7:35 PM 44.6 °F 40.7 °F 35.6 °F 71% 29.95 in 10.0 mi East 6.9 mph - N/A   Mostly Cloudy
7:55 PM 44.6 °F 40.7 °F 33.8 °F 66% 29.95 in 10.0 mi East 6.9 mph - N/A   Mostly Cloudy
8:15 PM 44.6 °F 40.7 °F 33.8 °F 66% 29.95 in 10.0 mi East 6.9 mph - N/A   Scattered Clouds
8:55 PM 44.6 °F 40.2 °F 33.8 °F 66% 29.95 in 10.0 mi East 8.1 mph - N/A   Mostly Cloudy
9:15 PM 42.8 °F 38.0 °F 33.8 °F 70% 29.95 in 10.0 mi East 8.1 mph - N/A   Overcast
9:35 PM 42.8 °F 37.0 °F 33.8 °F 70% 29.94 in 10.0 mi East 10.4 mph - N/A   Overcast
9:55 PM 42.8 °F 37.5 °F 32.0 °F 66% 29.94 in 10.0 mi East 9.2 mph - N/A   Overcast
10:15 PM 42.8 °F 37.0 °F 32.0 °F 66% 29.93 in 10.0 mi East 10.4 mph - N/A   Overcast
10:35 PM 42.8 °F 37.5 °F 32.0 °F 66% 29.94 in 10.0 mi East 9.2 mph - N/A   Overcast
10:55 PM 42.8 °F 37.5 °F 32.0 °F 66% 29.94 in 10.0 mi East 9.2 mph - N/A   Overcast
11:15 PM 42.8 °F 37.5 °F 32.0 °F 66% 29.94 in 10.0 mi East 9.2 mph - N/A   Overcast
11:35 PM 42.8 °F 37.5 °F 32.0 °F 66% 29.94 in 10.0 mi East 9.2 mph - N/A   Overcast
11:55 PM 42.8 °F 37.5 °F 32.0 °F 66% 29.94 in 10.0 mi East 9.2 mph - N/A   Overcast